Time;durP1;ratioP1;P1;durP2;ratioP2;P2;SDS_P1;SDS_P2;PMS_P1;PMS_P2;Temp;Humidity;BMP_temperature;BMP_pressure;BME280_temperature;BME280_humidity;BME280_pressure;Samples;Min_cycle;Max_cycle;Signal;HPM_P1;HPM_P2
2022/01/15 00:00:35;;;;;;;81.45;41.58;;;9.50;99.90;;;;;;5114176;27;20433;-74
2022/01/15 00:03:05;;;;;;;86.25;42.55;;;9.50;99.90;;;;;;5112448;27;20572;-74
2022/01/15 00:05:32;;;;;;;85.43;42.17;;;9.50;99.90;;;;;;5119339;27;20406;-74
2022/01/15 00:07:59;;;;;;;85.07;43.42;;;9.50;99.90;;;;;;5111084;27;20416;-74
2022/01/15 00:10:27;;;;;;;88.78;44.58;;;9.40;99.90;;;;;;5122451;27;20394;-74
2022/01/15 00:12:54;;;;;;;89.53;44.20;;;9.40;99.90;;;;;;5110720;27;20419;-74
2022/01/15 00:15:26;;;;;;;89.72;43.80;;;9.40;99.90;;;;;;5110167;28;20411;-74
2022/01/15 00:18:13;;;;;;;86.57;43.67;;;9.40;99.90;;;;;;5107472;28;20895;-74
2022/01/15 00:20:38;;;;;;;89.80;41.88;;;9.40;99.90;;;;;;5116743;27;20511;-74
2022/01/15 00:23:04;;;;;;;83.03;40.00;;;9.40;99.90;;;;;;5119668;27;20868;-74
2022/01/15 00:25:31;;;;;;;84.17;40.07;;;9.30;99.90;;;;;;5118559;27;20438;-73
2022/01/15 00:27:59;;;;;;;81.90;39.37;;;9.30;99.90;;;;;;5118611;27;20438;-74
2022/01/15 00:30:25;;;;;;;87.30;39.83;;;9.20;99.90;;;;;;5119053;27;20471;-74
2022/01/15 00:32:54;;;;;;;84.05;39.75;;;9.20;99.90;;;;;;5109288;27;20408;-74
2022/01/15 00:35:24;;;;;;;92.50;43.25;;;9.20;99.90;;;;;;5114571;27;20522;-74
2022/01/15 00:37:50;;;;;;;85.90;40.17;;;9.20;99.90;;;;;;5110469;27;20415;-74
2022/01/15 00:40:18;;;;;;;78.65;38.97;;;9.10;99.90;;;;;;5111503;27;20415;-74
2022/01/15 00:42:45;;;;;;;77.82;37.03;;;9.10;99.90;;;;;;5111586;27;20468;-73
2022/01/15 00:45:17;;;;;;;70.47;35.90;;;9.10;99.90;;;;;;5121018;27;20897;-74
2022/01/15 00:47:44;;;;;;;78.63;33.22;;;9.10;99.90;;;;;;5117330;27;20194;-74
2022/01/15 00:50:10;;;;;;;61.10;31.90;;;8.60;99.90;;;;;;5118292;27;20205;-74
2022/01/15 00:52:36;;;;;;;65.95;30.02;;;8.30;99.90;;;;;;5122724;27;20185;-73
2022/01/15 00:55:04;;;;;;;66.15;29.65;;;8.00;99.90;;;;;;5109079;27;20188;-73
2022/01/15 00:57:29;;;;;;;61.67;29.58;;;7.80;99.90;;;;;;5120572;27;20211;-74
2022/01/15 00:59:55;;;;;;;64.50;28.55;;;7.70;99.90;;;;;;5115903;27;20569;-73
2022/01/15 01:02:20;;;;;;;67.65;29.30;;;7.60;99.90;;;;;;5111104;27;20188;-74
2022/01/15 01:04:46;;;;;;;77.55;29.33;;;7.50;99.90;;;;;;5094404;28;20181;-73
2022/01/15 01:07:12;;;;;;;66.35;28.40;;;7.50;99.90;;;;;;5113881;27;20568;-74
2022/01/15 01:12:25;;;;;;;70.07;28.88;;;7.30;99.90;;;;;;5122168;27;20207;-74
2022/01/15 01:20:29;;;;;;;71.25;28.88;;;7.30;99.90;;;;;;5107906;28;20280;-74
2022/01/15 01:22:57;;;;;;;80.78;35.38;;;7.20;99.90;;;;;;5107483;28;20425;-74
2022/01/15 01:25:29;;;;;;;78.88;36.15;;;7.70;99.90;;;;;;5087609;28;20845;-74
2022/01/15 01:28:03;;;;;;;79.68;34.45;;;8.00;99.90;;;;;;5114302;27;20542;-73
2022/01/15 01:30:35;;;;;;;81.80;35.03;;;8.20;99.90;;;;;;5115822;27;20879;-72
2022/01/15 01:33:19;;;;;;;80.13;34.80;;;8.30;99.90;;;;;;5118097;27;20399;-72
2022/01/15 01:35:49;;;;;;;75.65;34.67;;;8.40;99.90;;;;;;5112450;27;20400;-73
2022/01/15 01:38:36;;;;;;;74.05;33.75;;;8.50;99.90;;;;;;5113083;27;20419;-73
2022/01/15 01:41:04;;;;;;;76.60;34.05;;;8.50;99.90;;;;;;5107828;28;20421;-73
2022/01/15 01:48:47;;;;;;;78.40;31.97;;;8.60;99.90;;;;;;5110341;28;20710;-73
2022/01/15 01:51:23;;;;;;;76.35;33.47;;;8.60;99.90;;;;;;5105673;28;20404;-73
2022/01/15 01:53:50;;;;;;;74.70;32.90;;;8.60;99.90;;;;;;5109513;28;20414;-73
2022/01/15 01:56:15;;;;;;;76.78;33.75;;;8.50;99.90;;;;;;5105413;28;20403;-74
2022/01/15 01:58:41;;;;;;;79.80;34.17;;;8.50;99.90;;;;;;5113226;27;20407;-73
2022/01/15 02:01:06;;;;;;;72.53;32.42;;;8.50;99.90;;;;;;5105921;28;20415;-73
2022/01/15 02:03:32;;;;;;;67.47;31.27;;;8.60;99.90;;;;;;5107930;27;20414;-73
2022/01/15 02:05:58;;;;;;;63.90;30.42;;;8.60;99.90;;;;;;5103265;28;20408;-73
2022/01/15 02:08:24;;;;;;;64.73;29.90;;;8.60;99.90;;;;;;5106752;28;20450;-73
2022/01/15 02:10:50;;;;;;;60.20;28.75;;;8.60;99.90;;;;;;5087949;28;20478;-74
2022/01/15 02:13:16;;;;;;;60.35;28.70;;;8.60;99.90;;;;;;5107711;28;20795;-73
2022/01/15 02:15:41;;;;;;;68.38;29.75;;;8.60;99.90;;;;;;5114356;28;20742;-73
2022/01/15 02:18:07;;;;;;;66.57;29.53;;;8.50;99.90;;;;;;5104885;28;20407;-73
2022/01/15 02:25:52;;;;;;;64.97;28.45;;;8.50;99.90;;;;;;5105362;28;20407;-74
2022/01/15 02:28:22;;;;;;;64.13;29.30;;;8.50;99.90;;;;;;5139002;27;20416;-74
2022/01/15 02:30:52;;;;;;;79.05;28.17;;;8.50;99.90;;;;;;5114794;28;20396;-74
2022/01/15 02:33:18;;;;;;;71.70;29.43;;;8.50;99.90;;;;;;5110770;28;20491;-74
2022/01/15 02:35:43;;;;;;;67.85;29.58;;;8.50;99.90;;;;;;5104710;28;20507;-74
2022/01/15 02:38:11;;;;;;;66.43;29.70;;;8.50;99.90;;;;;;5105473;28;20437;-73
2022/01/15 02:40:38;;;;;;;73.10;29.85;;;8.50;99.90;;;;;;5105883;28;20495;-75
2022/01/15 02:43:11;;;;;;;66.37;29.50;;;8.50;99.90;;;;;;5070461;28;1042022;-74
2022/01/15 02:45:40;;;;;;;63.38;28.48;;;8.50;99.90;;;;;;5104321;28;20415;-74
2022/01/15 02:48:15;;;;;;;62.90;26.92;;;8.50;99.90;;;;;;5090510;28;20404;-74
2022/01/15 02:50:42;;;;;;;61.33;26.15;;;8.50;99.90;;;;;;5110676;28;20430;-75
2022/01/15 02:53:09;;;;;;;52.57;26.03;;;8.50;99.90;;;;;;5107267;28;20491;-74
2022/01/15 02:55:35;;;;;;;54.88;26.10;;;8.40;99.90;;;;;;5112605;28;20415;-73
2022/01/15 02:58:01;;;;;;;60.90;26.95;;;8.40;99.90;;;;;;5107680;28;20453;-74
2022/01/15 03:00:27;;;;;;;64.20;26.50;;;8.40;99.90;;;;;;5114134;28;20756;-74
2022/01/15 03:02:53;;;;;;;63.42;27.45;;;8.40;99.90;;;;;;5104723;28;21053;-74
2022/01/15 03:05:20;;;;;;;59.95;26.95;;;8.30;99.90;;;;;;5107499;28;20513;-73
2022/01/15 03:07:46;;;;;;;62.80;26.17;;;8.30;99.90;;;;;;5107839;28;20404;-74
2022/01/15 03:10:12;;;;;;;59.43;24.90;;;8.40;99.90;;;;;;5119459;28;20416;-74
2022/01/15 03:12:38;;;;;;;62.85;25.27;;;8.30;99.90;;;;;;5111235;28;20410;-74
2022/01/15 03:15:06;;;;;;;52.45;23.55;;;8.30;99.90;;;;;;5111262;28;20412;-73
2022/01/15 03:17:32;;;;;;;52.90;22.45;;;8.30;99.90;;;;;;5110284;27;20427;-74
2022/01/15 03:19:59;;;;;;;54.05;22.60;;;8.30;99.90;;;;;;5109052;28;20822;-74
2022/01/15 03:22:25;;;;;;;53.00;22.20;;;8.30;99.90;;;;;;5105141;28;20787;-74
2022/01/15 03:24:51;;;;;;;51.72;21.55;;;8.30;99.90;;;;;;5108432;28;20415;-74
2022/01/15 03:27:17;;;;;;;53.78;21.75;;;8.30;99.90;;;;;;5111298;28;20414;-74
2022/01/15 03:29:43;;;;;;;47.20;20.10;;;8.30;99.90;;;;;;5117167;27;20412;-74
2022/01/15 03:32:09;;;;;;;50.72;20.70;;;8.20;99.90;;;;;;5110216;28;20422;-74
2022/01/15 03:34:35;;;;;;;46.20;20.30;;;8.20;99.90;;;;;;5120576;27;20402;-74
2022/01/15 03:37:01;;;;;;;46.83;20.33;;;8.20;99.90;;;;;;5121538;27;20400;-74
2022/01/15 03:39:27;;;;;;;43.65;19.98;;;8.10;99.90;;;;;;5116021;27;20437;-73
2022/01/15 03:41:53;;;;;;;46.78;20.30;;;8.10;99.90;;;;;;5112586;27;20415;-74
2022/01/15 03:44:19;;;;;;;43.77;19.77;;;8.10;99.90;;;;;;5121721;27;20471;-74
2022/01/15 03:46:44;;;;;;;46.72;19.75;;;8.10;99.90;;;;;;5106309;27;20418;-73
2022/01/15 03:49:10;;;;;;;41.50;19.83;;;8.00;99.90;;;;;;5114359;27;20418;-73
2022/01/15 03:51:36;;;;;;;45.63;20.15;;;8.00;99.90;;;;;;5095707;28;20926;-73
2022/01/15 03:54:02;;;;;;;43.42;19.50;;;8.00;99.90;;;;;;5109327;27;20403;-73
2022/01/15 03:56:27;;;;;;;44.95;20.17;;;8.00;99.90;;;;;;5109022;27;20523;-73
2022/01/15 03:58:53;;;;;;;45.13;20.23;;;8.00;99.90;;;;;;5122646;27;20991;-74
2022/01/15 04:01:19;;;;;;;45.03;19.53;;;8.00;99.90;;;;;;5114453;27;20471;-76
2022/01/15 04:03:44;;;;;;;63.55;22.23;;;8.00;99.90;;;;;;5116999;27;20893;-75
2022/01/15 04:06:10;;;;;;;55.83;22.23;;;8.00;99.90;;;;;;5120621;27;20404;-75
2022/01/15 04:08:35;;;;;;;78.97;22.88;;;8.00;99.90;;;;;;5112136;27;20426;-74
2022/01/15 04:11:01;;;;;;;74.47;24.10;;;8.10;99.90;;;;;;5118477;27;20402;-74
2022/01/15 04:13:27;;;;;;;62.40;22.67;;;8.00;99.90;;;;;;5112572;27;20425;-74
2022/01/15 04:15:53;;;;;;;64.35;23.88;;;7.90;99.90;;;;;;5118040;27;20471;-74
2022/01/15 04:18:21;;;;;;;65.53;23.90;;;7.90;99.90;;;;;;5117508;27;20400;-74
2022/01/15 04:20:47;;;;;;;64.97;24.50;;;7.90;99.90;;;;;;5119088;27;20736;-74
2022/01/15 04:23:13;;;;;;;62.88;24.08;;;7.80;99.90;;;;;;5112648;27;20400;-74
2022/01/15 04:25:38;;;;;;;62.50;24.43;;;7.80;99.90;;;;;;5111031;27;20407;-74
2022/01/15 04:28:08;;;;;;;60.55;24.65;;;7.80;99.90;;;;;;5110204;27;20938;-74
2022/01/15 04:30:35;;;;;;;63.88;26.20;;;7.90;99.90;;;;;;5118777;27;20396;-74
2022/01/15 04:33:00;;;;;;;66.07;26.48;;;7.90;99.90;;;;;;5120570;27;20409;-74
2022/01/15 04:35:26;;;;;;;68.73;26.60;;;7.90;99.90;;;;;;5093085;28;20397;-74
2022/01/15 04:37:59;;;;;;;70.07;26.73;;;7.90;99.90;;;;;;5108605;28;20400;-74
2022/01/15 04:40:25;;;;;;;72.03;26.98;;;7.90;99.90;;;;;;5108350;28;20400;-73
2022/01/15 04:42:51;;;;;;;81.60;27.83;;;7.80;99.90;;;;;;5110181;28;20566;-74
2022/01/15 04:45:16;;;;;;;74.07;27.48;;;7.80;99.90;;;;;;5092199;28;20412;-74
2022/01/15 04:47:42;;;;;;;61.80;26.43;;;7.80;99.90;;;;;;5090994;28;20446;-74
2022/01/15 04:50:11;;;;;;;80.28;27.35;;;7.80;99.90;;;;;;5097773;28;20412;-73
2022/01/15 04:52:38;;;;;;;98.70;29.50;;;7.70;99.90;;;;;;5108334;27;20832;-74
2022/01/15 04:55:05;;;;;;;85.65;29.05;;;7.70;99.90;;;;;;5119359;27;20398;-74
2022/01/15 04:57:31;;;;;;;85.72;28.30;;;7.70;99.90;;;;;;5108190;27;21055;-74
2022/01/15 04:59:57;;;;;;;73.75;27.17;;;7.70;99.90;;;;;;5107975;28;20498;-74
2022/01/15 05:02:22;;;;;;;85.13;27.60;;;7.70;99.90;;;;;;5108971;27;20416;-74
2022/01/15 05:04:48;;;;;;;85.90;26.80;;;7.70;99.90;;;;;;5115999;27;20522;-74
2022/01/15 05:07:13;;;;;;;97.87;28.00;;;7.70;99.90;;;;;;5114665;27;20412;-73
2022/01/15 05:09:39;;;;;;;73.43;27.70;;;7.60;99.90;;;;;;5119663;27;20838;-74
2022/01/15 05:12:24;;;;;;;75.20;28.07;;;7.60;99.90;;;;;;5113520;27;20410;-74
2022/01/15 05:14:50;;;;;;;86.07;25.98;;;7.60;99.90;;;;;;5105588;28;20426;-76
2022/01/15 05:17:15;;;;;;;135.00;27.33;;;7.60;99.90;;;;;;5103944;27;20979;-74
2022/01/15 05:19:41;;;;;;;83.60;24.45;;;7.60;99.90;;;;;;5108347;27;20410;-70
2022/01/15 05:22:07;;;;;;;84.87;23.77;;;7.50;99.90;;;;;;5113953;27;20411;-73
2022/01/15 05:24:33;;;;;;;69.20;24.70;;;7.50;99.90;;;;;;5108905;28;20910;-74
2022/01/15 05:26:59;;;;;;;130.00;25.90;;;7.50;99.90;;;;;;5113072;27;20415;-74
2022/01/15 05:29:25;;;;;;;118.13;25.67;;;7.40;99.90;;;;;;5119055;27;20839;-73
2022/01/15 05:31:50;;;;;;;80.80;26.00;;;7.40;99.90;;;;;;5111586;27;20420;-73
2022/01/15 05:34:16;;;;;;;70.93;25.15;;;7.40;99.90;;;;;;5090915;28;20403;-74
2022/01/15 05:36:42;;;;;;;78.18;25.17;;;7.40;99.90;;;;;;5113927;27;20515;-74
2022/01/15 05:39:08;;;;;;;180.67;24.53;;;7.40;99.90;;;;;;5109532;27;20408;-75
2022/01/15 05:41:33;;;;;;;102.82;24.83;;;7.40;99.90;;;;;;5109224;27;20411;-74
2022/01/15 05:44:02;;;;;;;87.77;23.33;;;7.30;99.90;;;;;;5117727;27;20499;-74
2022/01/15 05:46:28;;;;;;;105.25;23.92;;;7.30;99.90;;;;;;5111564;27;20814;-76
2022/01/15 05:48:54;;;;;;;85.20;23.80;;;7.30;99.90;;;;;;5100826;28;20420;-74
2022/01/15 05:51:20;;;;;;;93.13;22.77;;;7.30;99.90;;;;;;5111058;27;20408;-73
2022/01/15 05:53:45;;;;;;;79.25;23.60;;;7.30;99.90;;;;;;5107750;28;20403;-72
2022/01/15 05:56:11;;;;;;;102.40;23.70;;;7.20;99.90;;;;;;5108628;27;20978;-75
2022/01/15 05:58:37;;;;;;;83.22;23.70;;;7.20;99.90;;;;;;5108602;27;20412;-73
2022/01/15 06:01:02;;;;;;;120.17;24.87;;;7.20;99.90;;;;;;5106980;28;20749;-73
2022/01/15 06:03:28;;;;;;;98.28;24.17;;;7.20;99.90;;;;;;5089058;28;20822;-77
2022/01/15 06:05:54;;;;;;;85.23;25.20;;;7.20;99.90;;;;;;5091862;28;20452;-74
2022/01/15 06:08:19;;;;;;;173.40;25.25;;;7.20;99.90;;;;;;5110367;27;20505;-75
2022/01/15 06:10:45;;;;;;;102.00;25.37;;;7.20;99.90;;;;;;5110999;28;20407;-75
2022/01/15 06:13:10;;;;;;;88.82;25.58;;;7.20;99.90;;;;;;5108074;28;20432;-75
2022/01/15 06:15:36;;;;;;;102.90;24.70;;;7.30;99.90;;;;;;5107381;28;20460;-74
2022/01/15 06:18:02;;;;;;;135.43;24.27;;;7.30;99.90;;;;;;5109642;28;20420;-75
2022/01/15 06:20:28;;;;;;;90.40;25.23;;;7.30;99.90;;;;;;5102750;28;20788;-73
2022/01/15 06:22:53;;;;;;;125.78;25.90;;;7.20;99.90;;;;;;5104684;28;20891;-73
2022/01/15 06:25:19;;;;;;;118.90;24.80;;;7.30;99.90;;;;;;5107611;28;20392;-77
2022/01/15 06:27:45;;;;;;;192.68;24.08;;;7.30;99.90;;;;;;5108850;28;20504;-75
2022/01/15 06:30:10;;;;;;;127.03;22.57;;;7.30;99.90;;;;;;5109853;28;20822;-75
2022/01/15 06:32:36;;;;;;;87.80;22.90;;;7.30;99.90;;;;;;5106214;28;20427;-74
2022/01/15 06:35:10;;;;;;;164.70;23.07;;;7.20;99.90;;;;;;5117442;28;20403;-72
2022/01/15 06:37:36;;;;;;;176.93;22.65;;;7.30;99.90;;;;;;5100690;28;20437;-74
2022/01/15 06:40:04;;;;;;;207.98;22.20;;;7.20;99.90;;;;;;5104176;28;20418;-75
2022/01/15 06:42:30;;;;;;;192.63;23.55;;;7.20;99.90;;;;;;5102429;28;20473;-74
2022/01/15 06:44:55;;;;;;;173.32;22.50;;;7.20;99.90;;;;;;5104163;27;20401;-74
2022/01/15 06:47:21;;;;;;;226.77;21.83;;;7.10;99.90;;;;;;5098063;28;20415;-75
2022/01/15 06:49:47;;;;;;;215.68;22.77;;;7.10;99.90;;;;;;5105386;28;21065;-74
2022/01/15 06:52:12;;;;;;;220.87;21.80;;;7.10;99.90;;;;;;5104974;28;20919;-74
2022/01/15 06:54:38;;;;;;;259.85;22.00;;;7.00;99.90;;;;;;5105360;28;20431;-74
2022/01/15 06:57:04;;;;;;;278.10;21.73;;;7.00;99.90;;;;;;5104946;28;20908;-73
2022/01/15 06:59:29;;;;;;;153.02;16.95;;;6.90;99.90;;;;;;5106126;28;20198;-74
2022/01/15 07:01:55;;;;;;;195.40;17.52;;;6.50;99.90;;;;;;5103977;28;20212;-74
2022/01/15 07:04:21;;;;;;;166.32;16.85;;;6.20;99.90;;;;;;5103172;28;20335;-72
2022/01/15 07:06:46;;;;;;;;;;;6.00;99.90;;;;;;5109664;27;20028;-74
2022/01/15 07:09:12;;;;;;;127.53;14.10;;;5.80;99.90;;;;;;5111503;27;20183;-76
2022/01/15 07:11:38;;;;;;;85.85;14.52;;;5.70;99.90;;;;;;5116333;27;20180;-74
2022/01/15 07:14:03;;;;;;;264.52;16.08;;;5.50;99.90;;;;;;5110545;28;20192;-76
2022/01/15 07:16:29;;;;;;;126.47;16.52;;;5.40;99.90;;;;;;5114052;27;20189;-75
2022/01/15 07:18:54;;;;;;;218.32;17.35;;;5.40;99.90;;;;;;5109877;28;20181;-74
2022/01/15 07:21:20;;;;;;;116.18;16.85;;;5.30;99.90;;;;;;5114440;27;20190;-74
2022/01/15 07:23:45;;;;;;;132.98;16.52;;;5.30;99.90;;;;;;5111734;27;20185;-74
2022/01/15 07:26:11;;;;;;;177.52;14.15;;;5.30;99.90;;;;;;5121804;27;20272;-74
2022/01/15 07:28:37;;;;;;;114.80;14.23;;;5.30;99.90;;;;;;5115660;27;20197;-76
2022/01/15 07:31:02;;;;;;;129.23;15.52;;;5.20;99.90;;;;;;5108344;28;20270;-74
2022/01/15 07:33:28;;;;;;;129.80;16.42;;;5.10;99.90;;;;;;5113780;27;20185;-74
2022/01/15 07:35:55;;;;;;;79.57;15.57;;;5.10;99.90;;;;;;5110591;27;20231;-75
2022/01/15 07:38:21;;;;;;;279.40;17.00;;;5.10;99.90;;;;;;5110761;27;20654;-74
2022/01/15 07:40:48;;;;;;;95.30;16.75;;;5.10;99.90;;;;;;5106787;28;20263;-75
2022/01/15 07:43:14;;;;;;;89.75;15.25;;;5.00;99.90;;;;;;5117786;27;20219;-73
2022/01/15 07:45:41;;;;;;;100.03;15.55;;;5.00;99.90;;;;;;5108491;27;20188;-75
2022/01/15 07:48:06;;;;;;;151.00;15.50;;;5.00;99.90;;;;;;5109756;27;20189;-74
2022/01/15 07:50:32;;;;;;;134.20;16.15;;;4.90;99.90;;;;;;5106304;27;20180;-74
2022/01/15 07:52:58;;;;;;;143.27;16.17;;;4.90;99.90;;;;;;5091690;28;20216;-75
2022/01/15 07:55:25;;;;;;;181.50;16.30;;;4.90;99.90;;;;;;5110383;27;20183;-74
2022/01/15 07:57:52;;;;;;;169.63;17.38;;;4.90;99.90;;;;;;5107241;27;20280;-74
2022/01/15 08:00:19;;;;;;;218.23;16.42;;;4.90;99.90;;;;;;5114669;27;20276;-75
2022/01/15 08:02:44;;;;;;;188.25;16.60;;;4.80;99.90;;;;;;5108827;27;20193;-76
2022/01/15 08:05:11;;;;;;;127.93;16.13;;;4.90;99.90;;;;;;5107001;27;20197;-76
2022/01/15 08:07:38;;;;;;;183.30;16.98;;;4.80;99.90;;;;;;5108314;27;20188;-76
2022/01/15 08:10:06;;;;;;;141.30;15.85;;;4.80;99.90;;;;;;5111718;27;20220;-77
2022/01/15 08:12:42;;;;;;;218.50;19.13;;;4.80;99.90;;;;;;5107496;28;20185;-77
2022/01/15 08:15:08;;;;;;;103.05;18.35;;;4.80;99.90;;;;;;5109002;28;20224;-75
2022/01/15 08:17:33;;;;;;;85.25;19.40;;;4.80;99.90;;;;;;5108371;27;20216;-76
2022/01/15 08:19:59;;;;;;;175.68;20.75;;;4.80;99.90;;;;;;5111522;27;20752;-73
2022/01/15 08:22:24;;;;;;;119.75;21.15;;;4.80;99.90;;;;;;5109478;27;20192;-76
2022/01/15 08:24:50;;;;;;;189.00;21.73;;;4.80;99.90;;;;;;5116564;27;20204;-74
2022/01/15 08:27:16;;;;;;;135.77;21.85;;;4.70;99.90;;;;;;5111676;27;20238;-76
2022/01/15 08:29:42;;;;;;;144.75;22.38;;;4.70;99.90;;;;;;5111361;27;20746;-75
2022/01/15 08:32:08;;;;;;;148.32;23.30;;;4.70;99.90;;;;;;5110540;27;20192;-73
2022/01/15 08:34:33;;;;;;;176.60;23.27;;;4.70;99.90;;;;;;5109495;27;20199;-75
2022/01/15 08:36:59;;;;;;;125.95;23.10;;;4.70;99.90;;;;;;5112541;27;20189;-74
2022/01/15 08:39:24;;;;;;;100.45;22.25;;;4.70;99.90;;;;;;5144561;27;20189;-73
2022/01/15 08:41:50;;;;;;;134.55;22.98;;;4.70;99.90;;;;;;5108903;27;20200;-75
2022/01/15 08:44:23;;;;;;;102.68;23.83;;;4.60;99.90;;;;;;5118286;27;20225;-76
2022/01/15 08:46:50;;;;;;;127.65;23.80;;;4.70;99.90;;;;;;5110590;27;20235;-77
2022/01/15 08:49:16;;;;;;;123.10;24.20;;;4.70;99.90;;;;;;5114237;27;20220;-75
2022/01/15 08:51:41;;;;;;;95.85;23.50;;;4.70;99.90;;;;;;5093722;27;20628;-78
2022/01/15 08:54:07;;;;;;;94.22;23.77;;;4.70;99.90;;;;;;5108594;28;20226;-76
2022/01/15 08:56:32;;;;;;;83.93;24.40;;;4.70;99.90;;;;;;5112923;27;20189;-75
2022/01/15 08:58:58;;;;;;;94.15;25.13;;;4.70;99.90;;;;;;5121972;27;20177;-74
2022/01/15 09:01:24;;;;;;;103.60;24.83;;;4.70;99.90;;;;;;5112652;27;20598;-75
2022/01/15 09:03:49;;;;;;;89.25;26.80;;;4.70;99.90;;;;;;5107661;28;20185;-73
2022/01/15 09:06:15;;;;;;;87.25;25.50;;;4.70;99.90;;;;;;5109742;27;20185;-77
2022/01/15 09:08:42;;;;;;;71.78;26.35;;;4.70;99.90;;;;;;5106801;28;20201;-77
2022/01/15 09:11:08;;;;;;;80.00;26.88;;;4.70;99.90;;;;;;5108186;27;20845;-70
2022/01/15 09:13:34;;;;;;;113.82;27.60;;;4.80;99.90;;;;;;5111772;27;20225;-76
2022/01/15 09:15:59;;;;;;;82.28;26.08;;;4.80;99.90;;;;;;5108079;27;20178;-76
2022/01/15 09:18:25;;;;;;;109.97;25.83;;;4.80;99.90;;;;;;5116211;27;20176;-77
2022/01/15 09:20:51;;;;;;;86.93;25.77;;;4.80;99.90;;;;;;5091676;28;20206;-77
2022/01/15 09:23:17;;;;;;;81.47;26.08;;;4.70;99.90;;;;;;5117001;27;20181;-76
2022/01/15 09:25:42;;;;;;;99.18;27.33;;;4.80;99.90;;;;;;5106062;27;20181;-76
2022/01/15 09:30:52;;;;;;;82.82;25.90;;;4.80;99.90;;;;;;5108056;27;20481;-76
2022/01/15 09:33:18;;;;;;;98.47;27.25;;;4.80;99.90;;;;;;5113394;27;20185;-75
2022/01/15 09:35:44;;;;;;;131.25;28.10;;;4.80;99.90;;;;;;5112503;27;20180;-75
2022/01/15 09:38:10;;;;;;;103.55;27.63;;;4.80;99.90;;;;;;5110083;28;20193;-73
2022/01/15 09:40:38;;;;;;;91.93;28.73;;;4.90;99.90;;;;;;5108182;28;20752;-78
2022/01/15 09:43:04;;;;;;;105.30;28.23;;;4.90;99.90;;;;;;5110342;28;20220;-75
2022/01/15 09:45:31;;;;;;;93.82;28.75;;;4.90;99.90;;;;;;5113254;27;20185;-75
2022/01/15 09:48:02;;;;;;;103.47;28.50;;;4.90;99.90;;;;;;5106686;27;20188;-75
2022/01/15 09:50:30;;;;;;;129.95;27.98;;;4.90;99.90;;;;;;5110370;27;20216;-76
2022/01/15 09:52:56;;;;;;;164.10;29.80;;;4.90;99.90;;;;;;5107795;28;20650;-75
2022/01/15 09:55:23;;;;;;;123.10;29.30;;;4.90;99.90;;;;;;5122418;27;20189;-75
2022/01/15 09:57:50;;;;;;;113.38;29.88;;;4.90;99.90;;;;;;5106062;28;20189;-76
2022/01/15 10:00:18;;;;;;;125.68;28.85;;;4.90;99.90;;;;;;5092941;28;20693;-76
2022/01/15 10:02:46;;;;;;;101.40;28.23;;;4.90;99.90;;;;;;5107497;27;20806;-74
2022/01/15 10:05:12;;;;;;;135.70;28.58;;;4.90;99.90;;;;;;5109565;28;20196;-75
2022/01/15 10:07:54;;;;;;;133.57;30.08;;;4.90;99.90;;;;;;5109829;27;20189;-76
2022/01/15 10:10:22;;;;;;;106.22;29.00;;;4.90;99.90;;;;;;5109232;28;20209;-76
2022/01/15 10:12:48;;;;;;;102.07;29.60;;;4.90;99.90;;;;;;5090323;28;20188;-76
2022/01/15 10:15:15;;;;;;;99.45;27.52;;;4.90;99.90;;;;;;5109477;28;20196;-76
2022/01/15 10:17:42;;;;;;;98.55;27.50;;;4.90;99.90;;;;;;5116166;28;20321;-75
2022/01/15 10:20:10;;;;;;;81.10;26.88;;;4.90;99.90;;;;;;5115075;28;20663;-75
2022/01/15 10:22:40;;;;;;;74.53;26.88;;;4.90;99.90;;;;;;5110238;28;20261;-77
2022/01/15 10:25:18;;;;;;;69.32;25.40;;;4.90;99.90;;;;;;5108897;27;20192;-75
2022/01/15 10:27:46;;;;;;;74.35;25.70;;;5.00;99.90;;;;;;5107107;28;20199;-75
2022/01/15 10:30:27;;;;;;;67.10;25.38;;;5.00;99.90;;;;;;5107018;28;20235;-76
2022/01/15 10:33:05;;;;;;;93.47;26.38;;;5.00;99.90;;;;;;5105255;28;20673;-75
2022/01/15 10:35:45;;;;;;;94.97;25.33;;;5.00;99.90;;;;;;5110673;28;20186;-76
2022/01/15 10:38:17;;;;;;;99.95;33.15;;;5.10;99.90;;;;;;5110738;27;20907;-75
2022/01/15 10:40:46;;;;;;;104.88;34.85;;;5.50;99.90;;;;;;5110763;28;20468;-75
2022/01/15 10:43:15;;;;;;;89.73;32.83;;;5.90;99.90;;;;;;5109804;27;20416;-73
2022/01/15 10:45:50;;;;;;;123.15;33.70;;;6.10;99.90;;;;;;5103031;28;20802;-71
2022/01/15 10:48:33;;;;;;;97.32;33.50;;;6.20;99.90;;;;;;5145900;27;20392;-71
2022/01/15 10:51:05;;;;;;;96.25;32.63;;;6.30;99.90;;;;;;5116057;27;20406;-71
2022/01/15 10:53:39;;;;;;;132.20;35.17;;;6.40;99.90;;;;;;5113149;27;20396;-71
2022/01/15 10:56:08;;;;;;;115.78;33.22;;;6.40;99.90;;;;;;5111491;27;20404;-73
2022/01/15 10:58:34;;;;;;;114.13;33.33;;;6.50;99.90;;;;;;5121248;27;20408;-72
2022/01/15 11:01:00;;;;;;;94.88;32.75;;;6.50;99.90;;;;;;5119184;27;20413;-72
2022/01/15 11:03:37;;;;;;;93.10;33.07;;;6.50;99.90;;;;;;5113557;27;20807;-73
2022/01/15 11:06:04;;;;;;;98.40;33.95;;;6.60;99.90;;;;;;5107255;28;20514;-73
2022/01/15 11:08:35;;;;;;;149.30;35.15;;;6.60;99.90;;;;;;5113971;27;22463;-73
2022/01/15 11:11:06;;;;;;;123.60;36.50;;;6.60;99.90;;;;;;5117888;27;20463;-72
2022/01/15 11:13:41;;;;;;;146.05;37.55;;;6.60;99.90;;;;;;5110646;27;20393;-72
2022/01/15 11:16:14;;;;;;;137.35;37.22;;;6.70;99.90;;;;;;5140194;27;20412;-75
2022/01/15 11:18:42;;;;;;;153.85;39.50;;;6.70;99.90;;;;;;5144993;27;20887;-74
2022/01/15 11:21:10;;;;;;;154.57;40.20;;;6.70;99.90;;;;;;5108131;28;20443;-72
2022/01/15 11:23:38;;;;;;;157.50;39.05;;;6.80;99.90;;;;;;5119284;27;20490;-72
2022/01/15 11:26:12;;;;;;;112.55;39.45;;;6.80;99.90;;;;;;5114307;27;20420;-76
2022/01/15 11:28:38;;;;;;;125.38;39.75;;;6.70;99.90;;;;;;5098233;27;20404;-71
2022/01/15 11:31:10;;;;;;;147.40;39.75;;;6.80;99.90;;;;;;5110985;27;20492;-74
2022/01/15 11:33:39;;;;;;;121.72;40.03;;;6.80;99.90;;;;;;5108918;27;20415;-73
2022/01/15 11:36:07;;;;;;;121.40;40.60;;;6.70;99.90;;;;;;5109891;27;20541;-74
2022/01/15 11:38:37;;;;;;;107.38;39.08;;;6.70;99.90;;;;;;5120142;27;20403;-74
2022/01/15 11:41:03;;;;;;;103.82;39.33;;;6.70;99.90;;;;;;5115300;27;20432;-74
2022/01/15 11:43:33;;;;;;;98.18;38.08;;;6.70;99.90;;;;;;5111429;28;20408;-73
2022/01/15 11:46:22;;;;;;;94.07;37.27;;;6.60;99.90;;;;;;5113628;27;20489;-74
2022/01/15 11:48:48;;;;;;;81.13;34.15;;;6.70;99.90;;;;;;5125053;27;20418;-75
2022/01/15 11:51:14;;;;;;;77.47;32.85;;;6.70;99.90;;;;;;5115896;27;20420;-72
2022/01/15 11:53:46;;;;;;;80.40;33.90;;;6.60;99.90;;;;;;5110543;28;20408;-76
2022/01/15 11:56:16;;;;;;;84.93;34.55;;;6.70;99.90;;;;;;5091883;28;20419;-73
2022/01/15 11:58:42;;;;;;;84.78;34.40;;;6.70;99.90;;;;;;5098726;28;21175;-75
2022/01/15 12:01:38;;;;;;;80.30;33.53;;;6.60;99.90;;;;;;5116839;27;20422;-77
2022/01/15 12:04:41;;;;;;;83.70;35.03;;;6.70;99.90;;;;;;5109188;27;20878;-72
2022/01/15 12:07:06;;;;;;;84.85;35.42;;;6.60;99.90;;;;;;5108540;28;20942;-72
2022/01/15 12:09:43;;;;;;;82.20;33.10;;;6.70;99.90;;;;;;5108328;28;20508;-70
2022/01/15 12:12:21;;;;;;;74.93;31.88;;;6.70;99.90;;;;;;5108596;28;20412;-73
2022/01/15 12:14:56;;;;;;;77.72;31.88;;;6.70;99.90;;;;;;5109088;28;20422;-72
2022/01/15 12:17:48;;;;;;;68.70;29.70;;;6.80;99.90;;;;;;5121370;27;20411;-73
2022/01/15 12:20:16;;;;;;;65.90;29.15;;;6.70;99.90;;;;;;5105541;27;20485;-74
2022/01/15 12:22:53;;;;;;;61.08;27.55;;;6.70;99.90;;;;;;5108548;27;20415;-73
2022/01/15 12:25:19;;;;;;;61.67;27.53;;;6.70;99.90;;;;;;5125748;27;20903;-75
2022/01/15 12:27:59;;;;;;;61.30;26.35;;;6.70;99.90;;;;;;5114647;27;20484;-75
2022/01/15 12:30:33;;;;;;;55.97;26.20;;;6.60;99.90;;;;;;5106421;28;20428;-74
2022/01/15 12:33:01;;;;;;;57.65;26.48;;;6.60;99.90;;;;;;5107103;27;20423;-73
2022/01/15 12:35:31;;;;;;;59.25;26.80;;;6.70;99.90;;;;;;5114908;27;20453;-73
2022/01/15 12:38:27;;;;;;;52.28;25.27;;;6.70;99.90;;;;;;5108206;27;20501;-72
2022/01/15 12:41:07;;;;;;;52.45;25.05;;;6.70;99.90;;;;;;5107090;28;20947;-74
2022/01/15 12:43:41;;;;;;;52.40;24.65;;;6.60;99.90;;;;;;5108894;27;20810;-74
2022/01/15 12:46:10;;;;;;;51.80;24.17;;;6.60;99.90;;;;;;5087867;28;20413;-74
2022/01/15 12:48:44;;;;;;;53.95;24.58;;;6.60;99.90;;;;;;5110897;27;20826;-72
2022/01/15 12:51:14;;;;;;;52.63;24.83;;;6.60;99.90;;;;;;5107654;28;20403;-73
2022/01/15 12:53:53;;;;;;;48.55;22.77;;;6.60;99.90;;;;;;5109251;28;20392;-73
2022/01/15 12:56:19;;;;;;;43.13;21.07;;;6.60;99.90;;;;;;5105885;28;20410;-74
2022/01/15 12:58:45;;;;;;;44.17;22.13;;;6.60;99.90;;;;;;5109066;28;20406;-74